createdAt,value
2018-04-16T00:00:41.818Z,100198.34
2018-04-16T00:03:09.412Z,100202.41
2018-04-16T00:05:37.009Z,100198.78
2018-04-16T00:08:04.613Z,100202.13
2018-04-16T00:10:32.173Z,100199.50
2018-04-16T00:12:59.802Z,100202.63
2018-04-16T00:15:27.401Z,100201.70
2018-04-16T00:17:55.066Z,100197.53
2018-04-16T00:20:22.737Z,100196.29
2018-04-16T00:22:50.308Z,100202.66
2018-04-16T00:25:17.942Z,100200.15
2018-04-16T00:27:45.515Z,100210.50
2018-04-16T00:30:13.081Z,100203.60
2018-04-16T00:35:51.191Z,100205.66
2018-04-16T00:38:24.250Z,100201.69
2018-04-16T00:43:58.369Z,100195.63
2018-04-16T00:46:31.517Z,100210.42
2018-04-16T00:49:04.686Z,100212.48
2018-04-16T00:51:37.868Z,100198.81
2018-04-16T00:54:22.994Z,100190.55
2018-04-16T00:56:56.206Z,100185.20
2018-04-16T00:59:29.423Z,100178.84
2018-04-16T01:02:02.582Z,100177.19
2018-04-16T01:04:35.573Z,100168.11
2018-04-16T01:07:08.759Z,100162.87
2018-04-16T01:09:41.957Z,100173.20
2018-04-16T01:12:15.178Z,100170.09
2018-04-16T01:14:48.372Z,100167.22
2018-04-16T01:17:21.498Z,100164.00
2018-04-16T01:19:54.728Z,100167.96
2018-04-16T01:22:27.916Z,100158.78
2018-04-16T01:25:01.137Z,100165.77
2018-04-16T01:27:34.170Z,100170.78
2018-04-16T01:30:07.221Z,100169.31
2018-04-16T01:32:40.176Z,100170.45
2018-04-16T01:35:13.513Z,100167.22
2018-04-16T01:37:46.502Z,100163.48
2018-04-16T01:40:19.682Z,100163.25
2018-04-16T01:42:52.725Z,100157.42
2018-04-16T01:45:25.915Z,100167.45
2018-04-16T01:51:04.318Z,100176.80
2018-04-16T01:53:37.457Z,100165.92
2018-04-16T01:56:10.654Z,100160.38
2018-04-16T01:58:43.778Z,100158.75
2018-04-16T02:01:17.030Z,100155.14
2018-04-16T02:03:50.220Z,100149.27
2018-04-16T02:06:23.363Z,100152.58
2018-04-16T02:08:56.589Z,100147.42
2018-04-16T02:11:29.968Z,100139.25
2018-04-16T02:14:03.215Z,100135.16
2018-04-16T02:16:36.477Z,100134.33
2018-04-16T02:19:09.734Z,100137.11
2018-04-16T02:21:43.046Z,100130.31
2018-04-16T02:24:16.152Z,100131.70
2018-04-16T02:26:49.235Z,100128.30
2018-04-16T02:29:22.345Z,100120.78
2018-04-16T02:31:55.563Z,100119.94
2018-04-16T02:34:28.748Z,100123.36
2018-04-16T02:37:01.860Z,100108.13
2018-04-16T02:39:35.123Z,100110.38
2018-04-16T02:42:08.222Z,100111.22
2018-04-16T02:44:41.493Z,100111.83
2018-04-16T02:47:14.693Z,100109.83
2018-04-16T02:49:47.923Z,100103.70
2018-04-16T02:52:20.880Z,100106.00
2018-04-16T02:54:54.261Z,100106.09
2018-04-16T02:57:27.418Z,100103.23
2018-04-16T03:00:00.599Z,100097.52
2018-04-16T03:02:33.635Z,100096.84
2018-04-16T03:05:06.729Z,100095.59
2018-04-16T03:07:39.923Z,100099.10
2018-04-16T03:10:13.082Z,100089.92
2018-04-16T03:12:46.150Z,100096.59
2018-04-16T03:15:19.346Z,100100.78
2018-04-16T03:17:52.485Z,100102.77
2018-04-16T03:23:28.645Z,100105.42
2018-04-16T03:29:02.889Z,100098.81
2018-04-16T03:31:35.957Z,100098.06
2018-04-16T03:34:09.099Z,100097.91
2018-04-16T03:36:42.208Z,100098.61
2018-04-16T03:39:15.353Z,100098.19
2018-04-16T03:41:48.759Z,100099.47
2018-04-16T03:44:21.909Z,100108.77
2018-04-16T03:46:55.212Z,100109.47
2018-04-16T03:49:28.312Z,100115.77
2018-04-16T03:52:01.655Z,100115.55
2018-04-16T03:54:29.324Z,100117.64
2018-04-16T03:56:56.884Z,100114.70
2018-04-16T03:59:24.442Z,100111.30
2018-04-16T04:01:52.066Z,100119.13
2018-04-16T04:04:19.644Z,100120.39
2018-04-16T04:06:47.213Z,100121.91
2018-04-16T04:09:14.841Z,100124.24
2018-04-16T04:11:42.471Z,100132.43
2018-04-16T04:14:10.051Z,100128.13
2018-04-16T04:16:38.391Z,100132.73
2018-04-16T04:19:06.021Z,100134.96
2018-04-16T04:21:33.584Z,100135.45
2018-04-16T04:24:13.145Z,100134.58
2018-04-16T04:26:52.737Z,100134.22
2018-04-16T04:29:31.972Z,100132.58
2018-04-16T04:31:59.601Z,100126.99
2018-04-16T04:34:27.170Z,100129.01
2018-04-16T04:36:54.855Z,100129.82
2018-04-16T04:39:22.422Z,100127.48
2018-04-16T04:41:50.048Z,100131.25
2018-04-16T04:44:17.625Z,100132.11
2018-04-16T04:46:45.260Z,100129.33
2018-04-16T04:49:12.851Z,100124.43
2018-04-16T04:51:40.464Z,100139.89
2018-04-16T04:54:08.991Z,100135.05
2018-04-16T04:56:36.555Z,100137.27
2018-04-16T04:59:04.122Z,100129.20
2018-04-16T05:01:31.748Z,100130.07
2018-04-16T05:03:59.369Z,100125.79
2018-04-16T05:06:27.059Z,100127.44
2018-04-16T05:08:54.672Z,100131.87
2018-04-16T05:11:22.293Z,100134.55
2018-04-16T05:13:49.858Z,100140.84
2018-04-16T05:16:17.424Z,100138.48
2018-04-16T05:18:45.015Z,100136.22
2018-04-16T05:21:12.585Z,100136.92
2018-04-16T05:23:40.167Z,100133.72
2018-04-16T05:26:07.752Z,100128.66
2018-04-16T05:28:35.377Z,100126.27
2018-04-16T05:31:03.001Z,100117.02
2018-04-16T05:33:30.568Z,100123.28
2018-04-16T05:35:58.140Z,100124.24
2018-04-16T05:38:25.715Z,100120.06
2018-04-16T05:40:53.297Z,100116.78
2018-04-16T05:43:20.882Z,100120.31
2018-04-16T05:45:48.505Z,100120.70
2018-04-16T05:48:16.068Z,100126.23
2018-04-16T05:50:43.635Z,100124.22
2018-04-16T05:53:11.912Z,100133.67
2018-04-16T05:55:39.479Z,100127.99
2018-04-16T05:58:07.107Z,100134.09
2018-04-16T06:00:34.781Z,100129.82
2018-04-16T06:03:02.399Z,100129.10
2018-04-16T06:05:29.965Z,100132.51
2018-04-16T06:07:57.577Z,100136.38
2018-04-16T06:10:25.209Z,100134.48
2018-04-16T06:12:52.768Z,100131.71
2018-04-16T06:15:20.469Z,100126.10
2018-04-16T06:17:48.085Z,100126.25
2018-04-16T06:20:15.717Z,100123.67
2018-04-16T06:22:43.281Z,100129.13
2018-04-16T06:25:10.890Z,100127.34
2018-04-16T06:27:38.464Z,100132.26
2018-04-16T06:30:06.130Z,100124.31
2018-04-16T06:32:33.708Z,100126.86
2018-04-16T06:35:01.257Z,100125.45
2018-04-16T06:37:28.941Z,100131.61
2018-04-16T06:39:56.569Z,100135.41
2018-04-16T06:42:24.149Z,100134.63
2018-04-16T06:44:51.796Z,100139.95
2018-04-16T06:47:19.421Z,100142.63
2018-04-16T06:49:46.998Z,100135.83
2018-04-16T06:52:14.631Z,100134.17
2018-04-16T06:54:42.260Z,100127.58
2018-04-16T06:57:09.820Z,100134.84
2018-04-16T06:59:37.368Z,100128.92
2018-04-16T07:02:05.004Z,100129.05
2018-04-16T07:04:32.646Z,100129.70
2018-04-16T07:07:00.223Z,100127.17
2018-04-16T07:09:27.863Z,100121.20
2018-04-16T07:11:55.512Z,100126.68
2018-04-16T07:14:23.077Z,100126.94
2018-04-16T07:16:50.700Z,100126.36
2018-04-16T07:19:18.294Z,100132.89
2018-04-16T07:21:45.909Z,100135.48
2018-04-16T07:24:13.543Z,100126.67
2018-04-16T07:26:41.093Z,100128.86
2018-04-16T07:29:08.704Z,100129.61
2018-04-16T07:31:36.329Z,100130.28
2018-04-16T07:34:03.946Z,100122.66
2018-04-16T07:36:31.521Z,100118.91
2018-04-16T07:38:59.082Z,100118.13
2018-04-16T07:41:26.665Z,100109.28
2018-04-16T07:43:54.244Z,100114.23
2018-04-16T07:46:21.925Z,100111.73
2018-04-16T07:48:49.566Z,100108.52
2018-04-16T07:51:17.131Z,100108.81
2018-04-16T07:53:44.715Z,100103.31
2018-04-16T07:56:12.294Z,100097.55
2018-04-16T07:58:39.964Z,100101.99
2018-04-16T08:01:07.539Z,100098.09
2018-04-16T08:03:35.165Z,100102.63
2018-04-16T08:06:02.773Z,100094.13
2018-04-16T08:08:30.377Z,100092.53
2018-04-16T08:10:58.016Z,100088.06
2018-04-16T08:13:25.620Z,100089.12
2018-04-16T08:15:53.242Z,100082.94
2018-04-16T08:18:20.874Z,100081.61
2018-04-16T08:20:48.437Z,100084.37
2018-04-16T08:23:16.157Z,100075.81
2018-04-16T08:25:43.779Z,100080.23
2018-04-16T08:28:11.413Z,100077.72
2018-04-16T08:30:38.991Z,100074.02
2018-04-16T08:33:06.554Z,100071.95
2018-04-16T08:35:34.273Z,100064.67
2018-04-16T08:38:01.833Z,100048.14
2018-04-16T08:40:29.459Z,100048.29
2018-04-16T08:42:57.090Z,100045.92
2018-04-16T08:45:24.654Z,100048.02
2018-04-16T08:47:52.289Z,100041.38
2018-04-16T08:50:19.860Z,100042.61
2018-04-16T08:52:47.422Z,100035.99
2018-04-16T08:55:14.993Z,100038.36
2018-04-16T08:57:42.557Z,100038.28
2018-04-16T09:00:10.181Z,100038.42
2018-04-16T09:02:37.799Z,100043.14
2018-04-16T09:05:05.404Z,100037.92
2018-04-16T09:07:32.982Z,100040.61
2018-04-16T09:10:00.521Z,100046.95
2018-04-16T09:12:28.199Z,100043.05
2018-04-16T09:14:55.867Z,100042.81
2018-04-16T09:17:23.459Z,100043.20
2018-04-16T09:19:51.130Z,100038.73
2018-04-16T09:22:18.693Z,100026.68
2018-04-16T09:24:46.280Z,100026.64
2018-04-16T09:27:13.907Z,100022.22
2018-04-16T09:29:41.548Z,100023.94
2018-04-16T09:32:09.125Z,100031.97
2018-04-16T09:34:36.685Z,100021.34
2018-04-16T09:37:04.257Z,100022.70
2018-04-16T09:39:31.855Z,100017.63
2018-04-16T09:41:59.429Z,100015.61
2018-04-16T09:44:27.000Z,100019.59
2018-04-16T09:46:54.628Z,100014.50
2018-04-16T09:49:22.188Z,100016.69
2018-04-16T09:51:49.757Z,100015.84
2018-04-16T09:54:17.366Z,100012.01
2018-04-16T09:56:44.984Z,100006.86
2018-04-16T09:59:12.618Z,100006.37
2018-04-16T10:01:40.208Z,100003.09
2018-04-16T10:04:07.833Z,99996.14
2018-04-16T10:06:35.472Z,100001.27
2018-04-16T10:09:03.116Z,99999.02
2018-04-16T10:11:30.720Z,99991.81
2018-04-16T10:13:58.395Z,99994.20
2018-04-16T10:16:25.965Z,99986.44
2018-04-16T10:18:53.524Z,99991.53
2018-04-16T10:21:21.219Z,99989.81
2018-04-16T10:23:48.782Z,99989.06
2018-04-16T10:26:16.409Z,99981.39
2018-04-16T10:28:44.051Z,99981.61
2018-04-16T10:31:11.679Z,99985.06
2018-04-16T10:33:39.290Z,99979.22
2018-04-16T10:36:06.848Z,99976.39
2018-04-16T10:38:34.409Z,99975.91
2018-04-16T10:41:02.071Z,99971.20
2018-04-16T10:43:29.736Z,99977.71
2018-04-16T10:45:57.424Z,99970.00
2018-04-16T10:48:25.057Z,99973.80
2018-04-16T10:50:52.679Z,99965.05
2018-04-16T10:53:20.307Z,99965.23
2018-04-16T10:55:47.860Z,99965.02
2018-04-16T10:58:15.480Z,99960.80
2018-04-16T11:00:43.043Z,99966.28
2018-04-16T11:03:10.607Z,99962.48
2018-04-16T11:05:38.221Z,99961.43
2018-04-16T11:08:05.788Z,99964.98
2018-04-16T11:10:33.405Z,99962.21
2018-04-16T11:13:00.979Z,99962.36
2018-04-16T11:15:28.559Z,99961.03
2018-04-16T11:17:56.210Z,99947.95
2018-04-16T11:20:23.784Z,99951.21
2018-04-16T11:22:51.442Z,99941.47
2018-04-16T11:25:19.010Z,99942.38
2018-04-16T11:27:46.619Z,99940.16
2018-04-16T11:30:14.242Z,99938.20
2018-04-16T11:32:41.810Z,99936.62
2018-04-16T11:35:09.437Z,99933.13
2018-04-16T11:37:37.126Z,99928.59
2018-04-16T11:40:04.684Z,99930.43
2018-04-16T11:42:32.257Z,99925.39
2018-04-16T11:44:59.826Z,99924.91
2018-04-16T11:47:27.442Z,99930.88
2018-04-16T11:49:55.001Z,99922.98
2018-04-16T11:52:22.565Z,99917.79
2018-04-16T11:54:50.146Z,99916.80
2018-04-16T11:57:17.774Z,99921.77
2018-04-16T11:59:45.348Z,99908.47
2018-04-16T12:02:12.932Z,99915.77
2018-04-16T12:04:40.747Z,99919.89
2018-04-16T12:07:08.384Z,99914.79
2018-04-16T12:09:35.949Z,99913.33
2018-04-16T12:12:03.590Z,99910.77
2018-04-16T12:14:31.177Z,99902.70
2018-04-16T12:16:58.750Z,99908.90
2018-04-16T12:19:26.417Z,99900.53
2018-04-16T12:21:54.052Z,99905.52
2018-04-16T12:24:21.764Z,99905.31
2018-04-16T12:26:49.399Z,99908.53
2018-04-16T12:29:17.061Z,99910.59
2018-04-16T12:31:44.624Z,99906.48
2018-04-16T12:34:12.205Z,99898.75
2018-04-16T12:36:39.783Z,99902.86
2018-04-16T12:39:07.451Z,99902.08
2018-04-16T12:41:35.090Z,99911.00
2018-04-16T12:44:02.723Z,99905.12
2018-04-16T12:46:30.357Z,99908.38
2018-04-16T12:48:57.918Z,99906.05
2018-04-16T12:51:25.484Z,99903.05
2018-04-16T12:53:53.076Z,99912.14
2018-04-16T12:56:20.794Z,99914.59
2018-04-16T12:58:48.430Z,99910.97
2018-04-16T13:01:16.027Z,99909.37
2018-04-16T13:03:43.609Z,99903.16
2018-04-16T13:06:11.156Z,99898.06
2018-04-16T13:08:38.767Z,99902.23
2018-04-16T13:11:06.339Z,99901.59
2018-04-16T13:13:34.045Z,99892.55
2018-04-16T13:16:01.608Z,99904.00
2018-04-16T13:18:29.237Z,99896.55
2018-04-16T13:20:56.868Z,99893.46
2018-04-16T13:23:24.431Z,99902.53
2018-04-16T13:25:52.019Z,99889.31
2018-04-16T13:28:19.597Z,99882.98
2018-04-16T13:30:47.234Z,99879.81
2018-04-16T13:33:14.801Z,99879.77
2018-04-16T13:35:42.369Z,99884.91
2018-04-16T13:38:10.010Z,99873.00
2018-04-16T13:40:37.574Z,99872.60
2018-04-16T13:43:05.247Z,99877.44
2018-04-16T13:45:32.812Z,99869.75
2018-04-16T13:48:00.429Z,99871.40
2018-04-16T13:50:27.990Z,99875.95
2018-04-16T13:52:55.553Z,99867.11
2018-04-16T13:55:23.135Z,99870.58
2018-04-16T13:57:50.789Z,99871.80
2018-04-16T14:00:18.365Z,99866.86
2018-04-16T14:02:45.920Z,99867.23
2018-04-16T14:05:13.563Z,99868.75
2018-04-16T14:07:41.189Z,99864.66
2018-04-16T14:10:08.813Z,99864.22
2018-04-16T14:12:36.384Z,99858.15
2018-04-16T14:15:04.006Z,99859.27
2018-04-16T14:17:31.653Z,99852.73
2018-04-16T14:19:59.209Z,99844.84
2018-04-16T14:22:26.843Z,99838.20
2018-04-16T14:24:54.401Z,99834.62
2018-04-16T14:27:22.027Z,99841.45
2018-04-16T14:29:49.606Z,99840.66
2018-04-16T14:32:17.235Z,99842.75
2018-04-16T14:34:44.812Z,99839.72
2018-04-16T14:37:12.440Z,99836.41
2018-04-16T14:39:40.060Z,99835.99
2018-04-16T14:42:07.636Z,99839.70
2018-04-16T14:44:35.212Z,99840.49
2018-04-16T14:47:02.848Z,99845.19
2018-04-16T14:49:30.412Z,99832.55
2018-04-16T14:51:58.037Z,99837.89
2018-04-16T14:54:25.660Z,99840.03
2018-04-16T14:56:53.338Z,99843.89
2018-04-16T14:59:20.942Z,99844.75
2018-04-16T15:01:48.503Z,99839.79
2018-04-16T15:04:16.166Z,99843.39
2018-04-16T15:06:43.793Z,99840.20
2018-04-16T15:09:11.421Z,99848.08
2018-04-16T15:11:38.985Z,99858.28
2018-04-16T15:14:06.607Z,99856.72
2018-04-16T15:16:34.178Z,99858.20
2018-04-16T15:19:01.778Z,99861.51
2018-04-16T15:21:29.408Z,99859.34
2018-04-16T15:23:56.985Z,99864.30
2018-04-16T15:26:24.561Z,99866.80
2018-04-16T15:28:52.149Z,99863.98
2018-04-16T15:31:19.682Z,99868.19
2018-04-16T15:33:47.316Z,99867.20
2018-04-16T15:36:14.876Z,99865.94
2018-04-16T15:38:42.490Z,99871.17
2018-04-16T15:41:10.037Z,99870.52
2018-04-16T15:43:37.669Z,99864.84
2018-04-16T15:46:05.294Z,99865.16
2018-04-16T15:48:32.922Z,99865.42
2018-04-16T15:51:00.597Z,99861.15
2018-04-16T15:53:28.203Z,99864.59
2018-04-16T15:55:55.762Z,99867.02
2018-04-16T15:58:23.457Z,99868.20
2018-04-16T16:00:51.057Z,99863.29
2018-04-16T16:03:18.641Z,99859.84
2018-04-16T16:05:46.272Z,99863.44
2018-04-16T16:08:13.900Z,99854.73
2018-04-16T16:10:41.491Z,99859.09
2018-04-16T16:13:09.115Z,99859.16
2018-04-16T16:15:36.681Z,99865.84
2018-04-16T16:18:04.262Z,99868.31
2018-04-16T16:20:31.828Z,99860.42
2018-04-16T16:22:59.496Z,99860.47
2018-04-16T16:25:27.127Z,99860.95
2018-04-16T16:27:54.694Z,99860.75
2018-04-16T16:30:22.246Z,99864.59
2018-04-16T16:32:49.818Z,99865.67
2018-04-16T16:35:17.384Z,99872.27
2018-04-16T16:37:44.951Z,99868.73
2018-04-16T16:40:12.525Z,99869.27
2018-04-16T16:42:40.245Z,99863.53
2018-04-16T16:45:07.807Z,99871.52
2018-04-16T16:47:35.474Z,99870.88
2018-04-16T16:50:03.105Z,99869.99
2018-04-16T16:52:30.734Z,99874.05
2018-04-16T16:54:58.304Z,99879.95
2018-04-16T16:57:25.928Z,99881.03
2018-04-16T16:59:53.573Z,99881.82
2018-04-16T17:02:21.212Z,99882.47
2018-04-16T17:04:48.850Z,99891.09
2018-04-16T17:07:16.427Z,99894.73
2018-04-16T17:09:43.988Z,99900.91
2018-04-16T17:12:11.552Z,99898.70
2018-04-16T17:14:39.178Z,99903.69
2018-04-16T17:17:06.796Z,99902.84
2018-04-16T17:19:34.435Z,99906.92
2018-04-16T17:22:01.997Z,99917.19
2018-04-16T17:24:29.574Z,99916.78
2018-04-16T17:26:57.150Z,99921.00
2018-04-16T17:29:24.728Z,99920.59
2018-04-16T17:31:52.373Z,99928.22
2018-04-16T17:34:20.065Z,99931.38
2018-04-16T17:36:47.689Z,99931.07
2018-04-16T17:39:15.238Z,99923.29
2018-04-16T17:41:42.824Z,99926.02
2018-04-16T17:44:10.443Z,99929.17
2018-04-16T17:46:38.017Z,99925.02
2018-04-16T17:49:05.649Z,99926.05
2018-04-16T17:51:33.274Z,99935.27
2018-04-16T17:54:00.895Z,99940.42
2018-04-16T17:56:28.512Z,99935.05
2018-04-16T17:58:56.077Z,99928.03
2018-04-16T18:01:23.693Z,99931.58
2018-04-16T18:03:51.283Z,99923.44
2018-04-16T18:06:18.904Z,99933.92
2018-04-16T18:08:46.508Z,99938.77
2018-04-16T18:11:14.069Z,99944.66
2018-04-16T18:13:41.695Z,99949.94
2018-04-16T18:16:09.304Z,99955.06
2018-04-16T18:18:36.914Z,99963.35
2018-04-16T18:21:04.490Z,99972.14
2018-04-16T18:23:32.050Z,99978.37
2018-04-16T18:25:59.669Z,99983.47
2018-04-16T18:28:27.298Z,99985.02
2018-04-16T18:30:54.876Z,99997.54
2018-04-16T18:33:22.437Z,100002.39
2018-04-16T18:35:50.085Z,99999.59
2018-04-16T18:38:17.657Z,100001.91
2018-04-16T18:40:45.221Z,100000.28
2018-04-16T18:43:12.856Z,99995.89
2018-04-16T18:45:40.421Z,99995.42
2018-04-16T18:48:08.084Z,99990.20
2018-04-16T18:50:35.718Z,99993.95
2018-04-16T18:53:03.282Z,100000.09
2018-04-16T18:55:30.876Z,100002.82
2018-04-16T18:57:58.514Z,100007.56
2018-04-16T19:00:26.090Z,100005.51
2018-04-16T19:02:53.653Z,100001.27
2018-04-16T19:05:21.233Z,100012.30
2018-04-16T19:07:48.825Z,100023.42
2018-04-16T19:10:16.513Z,100011.99
2018-04-16T19:12:44.137Z,100014.41
2018-04-16T19:15:11.721Z,100011.05
2018-04-16T19:17:44.691Z,100022.06
2018-04-16T19:20:12.341Z,100030.20
2018-04-16T19:22:39.970Z,100030.63
2018-04-16T19:25:07.537Z,100024.30
2018-04-16T19:27:40.774Z,100019.98
2018-04-16T19:30:08.343Z,100015.46
2018-04-16T19:32:41.608Z,100013.94
2018-04-16T19:35:09.238Z,100015.18
2018-04-16T19:37:36.805Z,100021.27
2018-04-16T19:40:04.362Z,100033.13
2018-04-16T19:42:37.546Z,100024.34
2018-04-16T19:45:05.113Z,100030.55
2018-04-16T19:47:32.744Z,100024.33
2018-04-16T19:50:05.997Z,100029.36
2018-04-16T19:52:33.568Z,100027.69
2018-04-16T19:55:01.202Z,100031.28
2018-04-16T19:57:34.341Z,100027.11
2018-04-16T20:00:02.008Z,100026.84
2018-04-16T20:02:35.163Z,100017.67
2018-04-16T20:05:02.887Z,100014.19
2018-04-16T20:07:30.512Z,100013.97
2018-04-16T20:09:58.174Z,100004.91
2018-04-16T20:12:25.777Z,100010.08
2018-04-16T20:14:53.361Z,100013.23
2018-04-16T20:17:20.993Z,100017.31
2018-04-16T20:19:48.567Z,100021.35
2018-04-16T20:22:16.191Z,100021.83
2018-04-16T20:24:43.759Z,100023.97
2018-04-16T20:27:11.381Z,100036.78
2018-04-16T20:29:38.972Z,100022.11
2018-04-16T20:32:06.622Z,100026.03
2018-04-16T20:34:34.234Z,100021.34
2018-04-16T20:37:01.809Z,100019.47
2018-04-16T20:39:29.414Z,100025.67
2018-04-16T20:41:56.982Z,100024.37
2018-04-16T20:44:24.572Z,100027.30
2018-04-16T20:46:52.145Z,100029.16
2018-04-16T20:49:19.793Z,100028.27
2018-04-16T20:51:47.361Z,100029.61
2018-04-16T20:54:14.993Z,100030.43
2018-04-16T20:56:42.621Z,100032.41
2018-04-16T20:59:10.245Z,100038.95
2018-04-16T21:01:37.815Z,100037.66
2018-04-16T21:04:05.389Z,100051.66
2018-04-16T21:06:32.950Z,100050.81
2018-04-16T21:09:00.578Z,100048.55
2018-04-16T21:11:28.209Z,100053.05
2018-04-16T21:13:55.776Z,100049.29
2018-04-16T21:16:23.349Z,100049.81
2018-04-16T21:18:50.913Z,100047.03
2018-04-16T21:21:18.520Z,100047.66
2018-04-16T21:23:46.137Z,100045.01
2018-04-16T21:26:13.725Z,100043.53
2018-04-16T21:28:41.302Z,100043.76
2018-04-16T21:31:08.857Z,100044.84
2018-04-16T21:33:36.484Z,100043.13
2018-04-16T21:36:04.053Z,100041.35
2018-04-16T21:38:31.672Z,100038.73
2018-04-16T21:40:59.318Z,100041.98
2018-04-16T21:43:26.869Z,100045.47
2018-04-16T21:45:54.433Z,100042.86
2018-04-16T21:48:21.989Z,100041.39
2018-04-16T21:50:49.563Z,100041.09
2018-04-16T21:53:17.229Z,100041.19
2018-04-16T21:55:44.909Z,100035.38
2018-04-16T21:58:12.469Z,100027.95
2018-04-16T22:00:40.025Z,100020.75
2018-04-16T22:03:07.641Z,99999.64
2018-04-16T22:05:35.188Z,99981.08
2018-04-16T22:08:02.864Z,99989.02
2018-04-16T22:10:30.436Z,100003.14
2018-04-16T22:12:58.024Z,100015.27
2018-04-16T22:15:25.664Z,100018.64
2018-04-16T22:17:53.289Z,100000.46
2018-04-16T22:20:20.901Z,99991.27
2018-04-16T22:22:48.505Z,99999.73
2018-04-16T22:25:16.064Z,99991.38
2018-04-16T22:27:43.637Z,99981.45
2018-04-16T22:30:11.236Z,99973.97
2018-04-16T22:32:38.909Z,99966.91
2018-04-16T22:35:06.469Z,99959.30
2018-04-16T22:37:34.094Z,99955.84
2018-04-16T22:40:01.729Z,99948.47
2018-04-16T22:42:29.304Z,99944.92
2018-04-16T22:44:56.917Z,99948.05
2018-04-16T22:47:24.469Z,99942.73
2018-04-16T22:49:52.028Z,99938.42
2018-04-16T22:52:19.603Z,99944.89
2018-04-16T22:54:47.217Z,99938.97
2018-04-16T22:57:14.784Z,99937.33
2018-04-16T22:59:42.409Z,99936.28
2018-04-16T23:02:10.086Z,99920.62
2018-04-16T23:04:37.666Z,99918.44
2018-04-16T23:07:05.285Z,99917.92
2018-04-16T23:09:32.917Z,99925.53
2018-04-16T23:12:00.493Z,99934.61
2018-04-16T23:14:28.122Z,99938.58
2018-04-16T23:16:55.732Z,99949.33
2018-04-16T23:19:23.349Z,99941.37
2018-04-16T23:21:50.918Z,99941.66
2018-04-16T23:24:18.496Z,99937.80
2018-04-16T23:26:46.068Z,99934.55
2018-04-16T23:29:13.685Z,99931.70
2018-04-16T23:31:41.258Z,99931.73
2018-04-16T23:34:08.812Z,99936.64
2018-04-16T23:36:36.430Z,99933.83
2018-04-16T23:39:04.157Z,99924.22
2018-04-16T23:41:31.781Z,99909.19
2018-04-16T23:43:59.343Z,99922.13
2018-04-16T23:46:26.912Z,99921.51
2018-04-16T23:48:54.544Z,99924.02
2018-04-16T23:51:22.175Z,99914.41
2018-04-16T23:53:49.855Z,99915.52
2018-04-16T23:56:17.428Z,99912.59
2018-04-16T23:58:45.046Z,99911.17
